Impacts METAR Board INFO
IDs:

KPHX - Phoenix/Sky Harbor, AZ, US

Updated at: 0346 UTC 20 Feb 2018
Potential Impact None Slight Moderate High
Time19/15Z 19/16Z 19/17Z 19/18Z 19/19Z 19/20Z 19/21Z 19/22Z 19/23Z 20/00Z 20/01Z 20/02Z 20/03Z
VIS10 10 10 10 10 10 10 10 10 10 10 10 10
CIG60 40 38 45 55 60 60 60 60 85 85 80 85
CoverBKNBKNBKNBKNBKNBKNBKNBKNBKNBKNBKNBKNBKN
FltCatVFRVFRVFRVFRVFRVFRVFRVFRVFRVFRVFRVFRVFR
WX--------------------------
WDir190170250220250240260280290270310280300
WSpd11 9 11 16 15 21 20 23 21 20 18 18 14
WGst-- -- 16 -- 23 27 30 29 27 28 -- 24 --
Raw hourly METARs
KPHX 191451Z 19011KT 10SM SCT040 BKN060 15/10 A2971 RMK AO2 SLP049 T01500100 53005 $
KPHX 191551Z 17009KT 10SM BKN040 BKN060 16/09 A2972 RMK AO2 SLP054 T01610094 $
KPHX 191651Z 25011G16KT 10SM BKN038 BKN060 17/08 A2972 RMK AO2 SLP054 T01670083 $
KPHX 191751Z 22016KT 10SM BKN045 BKN070 19/07 A2971 RMK AO2 SLP048 T01890067 10189 20139 58001 $
KPHX 191851Z 25015G23KT 10SM BKN055 BKN080 19/06 A2969 RMK AO2 SLP043 T01940061 $
KPHX 191951Z 24021G27KT 10SM BKN060 BKN080 18/04 A2968 RMK AO2 PK WND 21027/1902 SLP039 T01830039 $
KPHX 192051Z 26020G30KT 10SM BKN060 BKN080 18/03 A2966 RMK AO2 PK WND 28030/2049 SLP033 T01830033 58015 $
KPHX 192151Z 28023G29KT 10SM BKN060 BKN080 17/02 A2968 RMK AO2 PK WND 26032/2128 SLP039 T01670022 $
KPHX 192251Z 29021G27KT 10SM BKN060 BKN080 16/M01 A2968 RMK AO2 PK WND 27035/2203 SLP041 T01561006 $
KPHX 192351Z 27020G28KT 10SM SCT065 BKN085 BKN100 16/M04 A2970 RMK AO2 PK WND 27031/2325 SLP047 T01611044 10200 20156 53013 $
KPHX 200051Z 31018KT 10SM SCT065 BKN085 BKN100 14/M04 A2974 RMK AO2 PK WND 27030/0016 SLP062 VIRGA NE T01441044 $
KPHX 200151Z 28018G24KT 10SM FEW060 BKN080 BKN095 14/M05 A2977 RMK AO2 PK WND 33027/0113 SLP074 T01391050 $
KPHX 200251Z 30014KT 10SM BKN085 13/M13 A2980 RMK AO2 SLP085 T01281128 51034 $